Aérodrome :
LOGIN :

S'inscrire | Disclaimer

   EN    FR    IT 

 










Légende :    VFR   VFR Marginal   IFR   IFR Intensif   IFR Très Intensif
Visi : 
Plafond : 
>= 8 km
>= 3000ft
5 à 8 km
1000 à 3000 ft
1500m à 5 km
500 à 1000 ft
800 à 1500m
200 à 500 ft
< 800m
< 200 ft
Symboles :   Orages  Brouillard  Fortes neiges  Fortes précipitations  Vent > 20 kt
SIGMETs :   Divers  Orages  Givrage  Turbulence  Onde Orograph.  Cendres Volcan.







- Altitude de l'aérodrome : 162 ft
- Code IATA : BOD
- Voir les cartes d'approche


LFBD - Bordeaux / Merignac

DERNIER METAR :
  • 290330Z AUTO 31009KT CAVOK 20/14 Q1013 TEMPO SHRA BKN010 SCT060CB

METARs EXPIRÉS :
  • 290300Z AUTO 36006KT CAVOK 21/14 Q1013 TEMPO SHRA BKN010 SCT060CB
  • 290230Z AUTO 36007KT CAVOK 22/13 Q1012 TEMPO SHRA BKN010 SCT060CB
  • 290200Z AUTO 04004KT CAVOK 22/14 Q1012 TEMPO SHRA BKN010 SCT060CB
  • 290130Z AUTO 02004KT CAVOK 23/13 Q1012 TEMPO SHRA BKN010 SCT060CB
  • 290100Z AUTO 19003KT CAVOK 23/13 Q1013 TEMPO SHRA BKN010 SCT060CB

TAF TAF LFBD
Valide du 29 à 00h jusqu'au 30 à 06h UTC


282300Z 2900/3006 27007KT CAVOK
PROB30
TEMPO 2900/2907 SHRA BKN010 SCT060CB
BECMG 2905/2907 BKN013
TEMPO 2906/2912 5000 RA
BECMG 2910/2912 BKN030
PROB30
TEMPO 2912/2916 4000 -TSRA BKN012 BKN050CB
BECMG 2922/2924 BKN008 TX23/2913Z TN19/2905Z
ATIS : +33 5 57 92 81 04
Pas de NOTAMs connus pour ce terrain.
1 SIGMET publié pour la FIR Bordeaux (LFBB) :
 
Orages noyés dans la masse
LFBB SIGMET 2 VALID 290300/290500 LFPW
LFBB BORDEAUX FIR/UIR EMBD TS OBS AT 0300Z W OF LINE N4630 W00045 - N4245 W00100 TOP FL390 MOV N 25KT NC=



MET'MAP, la Météo Aéronautique d'un coup d'oeil ! - Copyright ORBIFLY Décembre 2007 - Disclaimer

ORBIFLY MET'MAP TEAM :

Programmation & Développement : Alexandra Zaïnal
Conception & Développement : Baudouin d'Aumeries
Co-Programmation & Développement : Marc-Olivier Méhu
Soutien technique & logistique : Manuel Goepfert

Contact : metmap@orbifly.com




SOURCES & CREDITS :

   NOAA